createdAt,value
2022-12-18T00:00:30.323Z,14.39
2022-12-18T00:01:51.781Z,13.71
2022-12-18T00:04:33.981Z,14.41
2022-12-18T00:05:55.308Z,13.57
2022-12-18T00:07:16.577Z,14.18
2022-12-18T00:08:38.312Z,13.47
2022-12-18T00:09:59.942Z,12.88
2022-12-18T00:11:22.246Z,13.16
2022-12-18T00:12:44.325Z,13.63
2022-12-18T00:14:05.483Z,12.77
2022-12-18T00:15:30.609Z,13.19
2022-12-18T00:16:53.177Z,12.58
2022-12-18T00:18:18.956Z,12.28
2022-12-18T00:19:38.283Z,12.54
2022-12-18T00:21:00.840Z,12.33
2022-12-18T00:22:22.441Z,10.71
2022-12-18T00:23:45.374Z,12.04
2022-12-18T00:26:30.356Z,11.43
2022-12-18T00:27:51.754Z,11.89
2022-12-18T00:29:17.535Z,12.01
2022-12-18T00:30:39.956Z,12.18
2022-12-18T00:32:02.727Z,13.01
2022-12-18T00:33:24.118Z,11.66
2022-12-18T00:34:48.850Z,12.42
2022-12-18T00:36:13.415Z,11.65
2022-12-18T00:37:34.917Z,11.26
2022-12-18T00:38:58.397Z,11.44
2022-12-18T00:40:19.846Z,11.83
2022-12-18T00:41:40.927Z,11.57
2022-12-18T00:43:02.933Z,11.76
2022-12-18T00:44:25.077Z,11.36
2022-12-18T00:45:47.203Z,12.86
2022-12-18T00:47:08.539Z,11.98
2022-12-18T00:48:30.958Z,11.92
2022-12-18T00:49:52.309Z,12.41
2022-12-18T00:51:15.845Z,12.46
2022-12-18T00:52:37.257Z,12.17
2022-12-18T00:53:58.562Z,12.43
2022-12-18T00:55:21.019Z,11.87
2022-12-18T00:56:48.699Z,11.93
2022-12-18T00:58:06.584Z,11.46
2022-12-18T01:01:10.990Z,12.37
2022-12-18T01:02:35.082Z,11.80
2022-12-18T01:03:56.565Z,12.19
2022-12-18T01:05:20.469Z,12.13
2022-12-18T01:06:43.140Z,12.22
2022-12-18T01:08:04.965Z,12.54
2022-12-18T01:09:28.200Z,12.44
2022-12-18T01:10:50.895Z,13.51
2022-12-18T01:12:12.590Z,12.78
2022-12-18T01:13:33.981Z,13.24
2022-12-18T01:14:58.247Z,14.77
2022-12-18T01:16:27.926Z,11.84
2022-12-18T01:17:55.027Z,13.86
2022-12-18T01:19:34.173Z,13.93
2022-12-18T01:20:56.173Z,14.31
2022-12-18T01:22:18.256Z,14.54
2022-12-18T01:25:25.642Z,13.63
2022-12-18T01:26:47.857Z,13.14
2022-12-18T01:29:50.656Z,14.02
2022-12-18T01:31:17.702Z,13.29
2022-12-18T01:32:50.924Z,12.91
2022-12-18T01:34:15.878Z,15.47
2022-12-18T01:35:42.553Z,14.44
2022-12-18T01:39:00.284Z,13.66
2022-12-18T01:40:22.050Z,13.86
2022-12-18T01:41:43.419Z,14.00
2022-12-18T01:43:04.456Z,12.99
2022-12-18T01:44:52.030Z,13.99
2022-12-18T01:46:14.173Z,13.39
2022-12-18T01:47:41.460Z,11.56
2022-12-18T01:49:02.873Z,13.53
2022-12-18T01:50:26.972Z,14.16
2022-12-18T01:51:48.317Z,14.18
2022-12-18T01:54:25.146Z,14.31
2022-12-18T01:55:52.392Z,12.98
2022-12-18T01:57:13.785Z,14.17
2022-12-18T01:58:56.370Z,13.73
2022-12-18T02:00:19.175Z,13.66
2022-12-18T02:03:01.980Z,11.81
2022-12-18T02:04:24.902Z,14.23
2022-12-18T02:05:50.091Z,12.77
2022-12-18T02:07:27.147Z,13.10
2022-12-18T02:09:07.388Z,13.77
2022-12-18T02:12:21.249Z,13.68
2022-12-18T02:14:03.107Z,13.04
2022-12-18T02:17:07.614Z,15.42
2022-12-18T02:18:32.944Z,12.22
2022-12-18T02:20:12.749Z,13.35
2022-12-18T02:21:43.933Z,13.26
2022-12-18T02:23:12.318Z,13.69
2022-12-18T02:24:52.349Z,14.56
2022-12-18T02:26:27.940Z,12.08
2022-12-18T02:27:52.253Z,11.73
2022-12-18T02:29:17.869Z,11.66
2022-12-18T02:30:39.782Z,12.94
2022-12-18T02:33:27.889Z,11.63
2022-12-18T02:34:50.601Z,11.77
2022-12-18T02:36:12.836Z,12.17
2022-12-18T02:37:34.514Z,12.37
2022-12-18T02:38:57.043Z,11.32
2022-12-18T02:40:20.334Z,11.97
2022-12-18T02:41:42.232Z,12.56
2022-12-18T02:43:12.030Z,12.24
2022-12-18T02:44:33.116Z,12.23
2022-12-18T02:47:11.544Z,12.50
2022-12-18T02:48:33.541Z,12.38
2022-12-18T02:50:21.123Z,11.87
2022-12-18T02:51:56.511Z,12.69
2022-12-18T02:53:30.165Z,11.49
2022-12-18T02:55:14.624Z,11.87
2022-12-18T02:56:40.495Z,10.94
2022-12-18T02:59:41.508Z,11.73
2022-12-18T03:02:34.102Z,9.99
2022-12-18T03:03:56.878Z,12.50
2022-12-18T03:05:38.163Z,11.81
2022-12-18T03:07:01.994Z,11.74
2022-12-18T03:08:30.686Z,12.27
2022-12-18T03:09:51.957Z,11.71
2022-12-18T03:11:13.935Z,11.70
2022-12-18T03:12:36.362Z,12.43
2022-12-18T03:13:57.776Z,12.05
2022-12-18T03:15:27.763Z,12.76
2022-12-18T03:16:51.251Z,12.28
2022-12-18T03:18:27.732Z,12.19
2022-12-18T03:19:49.059Z,13.15
2022-12-18T03:21:10.193Z,12.39
2022-12-18T03:22:32.832Z,11.97
2022-12-18T03:23:54.195Z,10.21
2022-12-18T03:25:15.794Z,12.53
2022-12-18T03:26:39.152Z,11.98
2022-12-18T03:28:01.086Z,11.58
2022-12-18T03:29:34.315Z,11.94
2022-12-18T03:32:29.767Z,11.67
2022-12-18T03:33:56.279Z,12.18
2022-12-18T03:35:20.918Z,11.92
2022-12-18T03:36:42.906Z,11.94
2022-12-18T03:38:03.962Z,11.90
2022-12-18T03:39:25.468Z,13.44
2022-12-18T03:41:05.795Z,11.24
2022-12-18T03:42:48.808Z,12.12
2022-12-18T03:44:22.773Z,12.13
2022-12-18T03:45:50.445Z,12.27
2022-12-18T03:47:17.168Z,11.77
2022-12-18T03:48:41.257Z,12.58
2022-12-18T03:50:13.013Z,12.83
2022-12-18T03:51:52.718Z,11.89
2022-12-18T03:53:29.982Z,12.94
2022-12-18T03:54:51.114Z,13.98
2022-12-18T03:56:12.755Z,13.08
2022-12-18T03:58:43.837Z,10.78
2022-12-18T04:00:08.684Z,12.98
2022-12-18T04:01:34.522Z,11.97
2022-12-18T04:02:56.169Z,12.30
2022-12-18T04:04:18.137Z,13.09
2022-12-18T04:05:39.945Z,14.81
2022-12-18T04:07:01.755Z,14.24
2022-12-18T04:08:22.992Z,13.47
2022-12-18T04:09:43.983Z,13.42
2022-12-18T04:11:05.315Z,13.68
2022-12-18T04:12:26.641Z,12.64
2022-12-18T04:13:47.686Z,12.48
2022-12-18T04:15:09.023Z,13.02
2022-12-18T04:16:30.283Z,13.14
2022-12-18T04:17:51.563Z,11.98
2022-12-18T04:19:13.016Z,12.43
2022-12-18T04:20:34.339Z,12.09
2022-12-18T04:21:55.598Z,12.04
2022-12-18T04:23:17.142Z,12.78
2022-12-18T04:24:38.601Z,11.77
2022-12-18T04:26:00.286Z,12.19
2022-12-18T04:27:22.024Z,11.33
2022-12-18T04:28:43.261Z,11.87
2022-12-18T04:30:05.160Z,12.27
2022-12-18T04:31:26.347Z,11.63
2022-12-18T04:32:52.055Z,11.48
2022-12-18T04:35:31.651Z,10.78
2022-12-18T04:36:53.175Z,11.47
2022-12-18T04:38:14.355Z,11.59
2022-12-18T04:39:35.491Z,12.24
2022-12-18T04:40:56.614Z,10.43
2022-12-18T04:42:17.925Z,10.71
2022-12-18T04:43:39.767Z,10.37
2022-12-18T04:45:01.210Z,10.26
2022-12-18T04:46:22.306Z,10.84
2022-12-18T04:47:43.518Z,10.53
2022-12-18T04:49:05.110Z,10.78
2022-12-18T04:50:26.342Z,9.73
2022-12-18T04:51:47.506Z,10.94
2022-12-18T04:53:08.801Z,10.04
2022-12-18T04:54:31.527Z,10.01
2022-12-18T04:56:10.372Z,10.29
2022-12-18T04:57:31.633Z,9.71
2022-12-18T04:58:52.862Z,10.35
2022-12-18T05:00:15.551Z,9.05
2022-12-18T05:01:36.947Z,10.26
2022-12-18T05:02:58.532Z,9.46
2022-12-18T05:04:19.807Z,9.26
2022-12-18T05:05:41.410Z,9.64
2022-12-18T05:07:02.657Z,8.90
2022-12-18T05:08:23.888Z,9.59
2022-12-18T05:09:45.170Z,9.19
2022-12-18T05:11:08.996Z,9.17
2022-12-18T05:12:31.423Z,8.74
2022-12-18T05:13:52.810Z,9.71
2022-12-18T05:15:14.111Z,9.05
2022-12-18T05:16:35.532Z,8.57
2022-12-18T05:19:07.076Z,8.96
2022-12-18T05:20:28.709Z,8.71
2022-12-18T05:21:50.420Z,9.35
2022-12-18T05:23:12.233Z,7.85
2022-12-18T05:24:33.289Z,7.35
2022-12-18T05:27:14.892Z,7.81
2022-12-18T05:28:36.718Z,7.52
2022-12-18T05:29:58.223Z,7.86
2022-12-18T05:31:19.647Z,7.51
2022-12-18T05:32:41.065Z,7.91
2022-12-18T05:34:02.715Z,9.36
2022-12-18T05:35:24.061Z,7.03
2022-12-18T05:36:45.556Z,6.39
2022-12-18T05:38:06.680Z,6.53
2022-12-18T05:39:27.887Z,5.83
2022-12-18T05:40:50.367Z,6.13
2022-12-18T05:42:11.799Z,5.73
2022-12-18T05:43:34.471Z,6.45
2022-12-18T05:44:56.143Z,5.68
2022-12-18T05:46:18.065Z,6.46
2022-12-18T05:47:39.690Z,7.19
2022-12-18T05:49:00.923Z,6.25
2022-12-18T05:50:22.314Z,6.99
2022-12-18T05:51:43.818Z,7.44
2022-12-18T05:53:05.239Z,7.14
2022-12-18T05:54:29.619Z,7.69
2022-12-18T05:55:50.869Z,7.34
2022-12-18T05:57:11.971Z,7.30
2022-12-18T05:58:33.518Z,7.33
2022-12-18T05:59:54.755Z,7.38
2022-12-18T06:01:17.793Z,7.42
2022-12-18T06:02:39.001Z,7.08
2022-12-18T06:04:00.435Z,7.50
2022-12-18T06:05:21.999Z,7.32
2022-12-18T06:06:43.876Z,7.08
2022-12-18T06:08:05.650Z,7.35
2022-12-18T06:09:27.746Z,8.05
2022-12-18T06:10:52.004Z,8.06
2022-12-18T06:12:13.291Z,7.97
2022-12-18T06:13:34.696Z,8.12
2022-12-18T06:14:56.042Z,8.12
2022-12-18T06:16:17.323Z,7.36
2022-12-18T06:17:39.204Z,8.93
2022-12-18T06:19:01.542Z,8.63
2022-12-18T06:20:22.917Z,8.77
2022-12-18T06:21:44.195Z,8.76
2022-12-18T06:23:05.924Z,8.35
2022-12-18T06:24:28.312Z,9.72
2022-12-18T06:25:49.346Z,9.08
2022-12-18T06:27:10.533Z,9.89
2022-12-18T06:28:32.031Z,9.53
2022-12-18T06:29:53.766Z,9.26
2022-12-18T06:31:14.886Z,8.96
2022-12-18T06:32:36.077Z,9.06
2022-12-18T06:33:57.195Z,8.91
2022-12-18T06:35:18.836Z,9.18
2022-12-18T06:36:42.044Z,9.54
2022-12-18T06:38:03.654Z,10.08
2022-12-18T06:39:25.211Z,9.33
2022-12-18T06:40:48.217Z,9.57
2022-12-18T06:42:09.548Z,9.37
2022-12-18T06:43:31.112Z,8.98
2022-12-18T06:44:52.563Z,10.07
2022-12-18T06:46:14.623Z,9.33
2022-12-18T06:47:35.984Z,10.08
2022-12-18T06:48:57.456Z,9.43
2022-12-18T06:50:19.138Z,9.73
2022-12-18T06:51:40.484Z,9.67
2022-12-18T06:53:02.360Z,10.39
2022-12-18T06:54:23.795Z,10.13
2022-12-18T06:55:45.235Z,10.46
2022-12-18T06:57:06.348Z,10.19
2022-12-18T06:58:28.327Z,10.04
2022-12-18T06:59:49.502Z,9.81
2022-12-18T07:01:11.239Z,9.93
2022-12-18T07:02:32.734Z,10.88
2022-12-18T07:03:54.720Z,11.20
2022-12-18T07:05:16.376Z,10.39
2022-12-18T07:06:38.605Z,10.66
2022-12-18T07:07:59.933Z,9.58
2022-12-18T07:09:21.322Z,10.78
2022-12-18T07:10:46.980Z,10.02
2022-12-18T07:12:06.685Z,9.97
2022-12-18T07:13:27.685Z,10.33
2022-12-18T07:14:49.127Z,10.69
2022-12-18T07:16:22.364Z,11.18
2022-12-18T07:17:38.962Z,10.88
2022-12-18T07:19:00.403Z,10.57
2022-12-18T07:20:21.878Z,10.81
2022-12-18T07:21:43.204Z,10.47
2022-12-18T07:23:04.948Z,10.61
2022-12-18T07:24:25.911Z,11.50
2022-12-18T07:25:47.416Z,10.92
2022-12-18T07:27:08.697Z,11.36
2022-12-18T07:28:31.710Z,12.11
2022-12-18T07:29:52.929Z,11.29
2022-12-18T07:31:16.238Z,11.38
2022-12-18T07:32:37.846Z,12.80
2022-12-18T07:34:00.983Z,11.24
2022-12-18T07:35:24.982Z,11.25
2022-12-18T07:36:44.937Z,11.59
2022-12-18T07:38:06.217Z,11.89
2022-12-18T07:39:27.642Z,11.67
2022-12-18T07:40:49.227Z,11.22
2022-12-18T07:42:10.588Z,10.91
2022-12-18T07:43:33.978Z,11.59
2022-12-18T07:44:55.238Z,10.90
2022-12-18T07:46:17.045Z,11.89
2022-12-18T07:47:38.176Z,13.32
2022-12-18T07:48:59.647Z,10.95
2022-12-18T07:50:21.205Z,10.89
2022-12-18T07:51:42.404Z,10.56
2022-12-18T07:53:05.003Z,10.66
2022-12-18T07:54:26.102Z,10.94
2022-12-18T07:56:18.426Z,10.29
2022-12-18T07:57:33.733Z,10.64
2022-12-18T07:58:33.580Z,9.49
2022-12-18T07:59:55.641Z,10.72
2022-12-18T08:01:16.827Z,10.41
2022-12-18T08:04:01.488Z,11.11
2022-12-18T08:05:22.940Z,10.73
2022-12-18T08:18:24.032Z,6.63
2022-12-18T08:19:45.857Z,7.70
2022-12-18T08:22:29.524Z,9.46
2022-12-18T08:23:52.382Z,8.58
2022-12-18T08:25:13.759Z,9.21
2022-12-18T08:26:35.407Z,8.92
2022-12-18T08:27:56.824Z,9.19
2022-12-18T08:29:21.574Z,8.27
2022-12-18T08:30:41.578Z,8.78
2022-12-18T08:32:03.240Z,8.22
2022-12-18T08:33:24.583Z,9.21
2022-12-18T08:34:46.069Z,9.53
2022-12-18T08:36:09.451Z,8.55
2022-12-18T08:37:30.986Z,8.14
2022-12-18T08:38:52.472Z,8.78
2022-12-18T08:40:14.218Z,8.18
2022-12-18T08:41:35.602Z,8.82
2022-12-18T08:43:16.351Z,8.94
2022-12-18T08:44:37.643Z,7.81
2022-12-18T08:45:59.045Z,8.49
2022-12-18T08:47:20.927Z,7.73
2022-12-18T08:48:43.010Z,8.21
2022-12-18T08:50:05.136Z,7.94
2022-12-18T08:51:26.417Z,8.28
2022-12-18T08:52:47.841Z,7.81
2022-12-18T08:54:11.904Z,7.82
2022-12-18T08:55:34.213Z,8.21
2022-12-18T08:56:56.674Z,7.82
2022-12-18T08:58:17.993Z,8.34
2022-12-18T08:59:39.338Z,8.87
2022-12-18T09:01:04.533Z,7.93
2022-12-18T09:02:27.096Z,6.94
2022-12-18T09:03:49.344Z,7.65
2022-12-18T09:05:10.445Z,6.27
2022-12-18T09:06:33.105Z,7.24
2022-12-18T09:07:54.247Z,7.82
2022-12-18T09:09:15.731Z,8.00
2022-12-18T09:10:47.690Z,8.52
2022-12-18T09:12:08.962Z,7.29
2022-12-18T09:13:30.471Z,6.99
2022-12-18T09:14:52.014Z,7.81
2022-12-18T09:16:13.825Z,6.82
2022-12-18T09:17:35.225Z,6.68
2022-12-18T09:18:58.273Z,6.69
2022-12-18T09:20:19.977Z,6.21
2022-12-18T09:21:47.767Z,7.09
2022-12-18T09:23:06.720Z,7.21
2022-12-18T09:24:28.232Z,6.84
2022-12-18T09:25:49.646Z,6.50
2022-12-18T09:27:11.510Z,7.20
2022-12-18T09:28:33.096Z,6.72
2022-12-18T09:29:54.195Z,7.63
2022-12-18T09:31:15.893Z,7.34
2022-12-18T09:32:37.353Z,7.22
2022-12-18T09:33:58.535Z,6.89
2022-12-18T09:35:19.990Z,7.43
2022-12-18T09:36:41.594Z,7.01
2022-12-18T09:38:03.096Z,7.65
2022-12-18T09:39:28.045Z,7.27
2022-12-18T09:40:51.554Z,7.47
2022-12-18T09:42:19.124Z,8.10
2022-12-18T09:44:54.042Z,8.44
2022-12-18T09:47:31.353Z,7.50
2022-12-18T09:48:53.146Z,7.91
2022-12-18T09:50:32.945Z,8.02
2022-12-18T09:52:02.937Z,7.01
2022-12-18T09:53:26.753Z,7.26
2022-12-18T09:56:16.944Z,6.64
2022-12-18T09:57:41.595Z,7.98
2022-12-18T09:59:03.587Z,7.51
2022-12-18T10:00:25.984Z,7.52
2022-12-18T10:01:48.842Z,7.21
2022-12-18T10:03:13.866Z,7.62
2022-12-18T10:04:35.173Z,7.53
2022-12-18T10:06:21.193Z,8.16
2022-12-18T10:07:52.214Z,7.45
2022-12-18T10:09:35.121Z,8.34
2022-12-18T10:10:59.968Z,7.59
2022-12-18T10:12:24.779Z,7.91
2022-12-18T10:13:49.402Z,8.27
2022-12-18T10:15:29.447Z,7.67
2022-12-18T10:17:03.646Z,8.16
2022-12-18T10:18:45.151Z,8.52
2022-12-18T10:21:55.533Z,6.15
2022-12-18T10:23:23.623Z,8.51
2022-12-18T10:24:49.058Z,8.54
2022-12-18T10:26:11.554Z,8.06
2022-12-18T10:27:32.695Z,8.64
2022-12-18T10:28:54.715Z,7.24
2022-12-18T10:30:18.109Z,8.86
2022-12-18T10:31:41.365Z,8.99
2022-12-18T10:33:03.122Z,9.29
2022-12-18T10:34:24.246Z,8.70
2022-12-18T10:35:45.693Z,8.54
2022-12-18T10:37:07.154Z,9.01
2022-12-18T10:38:29.288Z,8.58
2022-12-18T10:41:29.553Z,6.78
2022-12-18T10:43:14.008Z,7.31
2022-12-18T10:46:11.578Z,8.03
2022-12-18T10:47:34.457Z,9.18
2022-12-18T10:48:56.344Z,6.90
2022-12-18T10:51:01.856Z,9.33
2022-12-18T10:52:18.685Z,8.58
2022-12-18T10:53:40.849Z,8.27
2022-12-18T10:55:03.435Z,8.23
2022-12-18T10:56:25.981Z,8.12
2022-12-18T10:57:46.949Z,8.36
2022-12-18T10:59:10.002Z,9.04
2022-12-18T11:00:31.209Z,8.71
2022-12-18T11:01:58.683Z,7.85
2022-12-18T11:04:52.281Z,8.56
2022-12-18T11:06:18.990Z,9.32
2022-12-18T11:09:31.254Z,8.96
2022-12-18T11:10:52.337Z,8.57
2022-12-18T11:12:20.294Z,9.02
2022-12-18T11:13:41.239Z,8.44
2022-12-18T11:15:02.320Z,9.03
2022-12-18T11:16:24.066Z,8.74
2022-12-18T11:17:45.443Z,8.44
2022-12-18T11:20:39.698Z,9.68
2022-12-18T11:22:02.128Z,9.47
2022-12-18T11:23:23.710Z,6.98
2022-12-18T11:25:22.874Z,9.23
2022-12-18T11:26:16.591Z,9.27
2022-12-18T11:27:38.616Z,9.76
2022-12-18T11:29:10.508Z,8.94
2022-12-18T11:31:49.985Z,8.57
2022-12-18T11:33:14.583Z,8.82
2022-12-18T11:34:42.765Z,8.61
2022-12-18T11:36:04.826Z,8.67
2022-12-18T11:37:26.148Z,8.26
2022-12-18T11:38:47.633Z,8.28
2022-12-18T11:41:46.531Z,8.69
2022-12-18T11:43:32.408Z,8.26
2022-12-18T11:46:21.468Z,7.79
2022-12-18T11:48:34.832Z,7.96
2022-12-18T11:52:41.603Z,8.45
2022-12-18T11:54:06.821Z,8.46
2022-12-18T11:55:43.806Z,7.31
2022-12-18T11:57:24.072Z,7.37
2022-12-18T11:58:52.025Z,7.85
2022-12-18T12:00:18.652Z,7.62
2022-12-18T12:01:44.679Z,7.97
2022-12-18T12:03:19.175Z,8.06
2022-12-18T12:05:03.577Z,8.20
2022-12-18T12:09:27.415Z,7.68
2022-12-18T12:10:59.502Z,8.41
2022-12-18T12:12:45.226Z,8.38
2022-12-18T12:14:23.516Z,7.86
2022-12-18T12:16:09.483Z,8.09
2022-12-18T12:19:01.017Z,8.27
2022-12-18T12:20:35.939Z,8.10
2022-12-18T12:22:18.783Z,8.34
2022-12-18T12:23:59.065Z,9.46
2022-12-18T12:25:41.785Z,7.92
2022-12-18T12:28:57.891Z,8.35
2022-12-18T12:30:25.215Z,7.95
2022-12-18T12:32:06.837Z,7.57
2022-12-18T12:33:46.127Z,7.96
2022-12-18T12:35:36.811Z,7.52
2022-12-18T12:37:14.046Z,8.17
2022-12-18T12:39:51.052Z,8.43
2022-12-18T12:41:14.469Z,8.34
2022-12-18T12:44:07.161Z,8.16
2022-12-18T12:45:35.329Z,8.97
2022-12-18T12:46:59.902Z,8.95
2022-12-18T12:48:40.798Z,8.64
2022-12-18T12:50:04.510Z,8.74
2022-12-18T12:51:29.604Z,8.44
2022-12-18T12:52:53.091Z,8.26
2022-12-18T12:54:21.956Z,7.19
2022-12-18T12:55:43.682Z,8.84
2022-12-18T12:57:10.654Z,8.96
2022-12-18T12:58:38.924Z,8.87
2022-12-18T13:00:15.302Z,9.73
2022-12-18T13:01:54.008Z,8.59
2022-12-18T13:03:34.176Z,8.11
2022-12-18T13:05:26.830Z,9.86
2022-12-18T13:07:03.710Z,8.44
2022-12-18T13:08:31.134Z,8.63
2022-12-18T13:10:19.164Z,9.56
2022-12-18T13:11:41.657Z,8.91
2022-12-18T13:13:17.103Z,9.01
2022-12-18T13:14:39.136Z,8.10
2022-12-18T13:17:28.735Z,8.69
2022-12-18T13:18:51.273Z,8.42
2022-12-18T13:20:15.601Z,9.48
2022-12-18T13:21:38.243Z,8.96
2022-12-18T13:22:59.718Z,9.26
2022-12-18T13:24:28.988Z,8.38
2022-12-18T13:25:51.288Z,8.97
2022-12-18T13:27:45.116Z,8.00
2022-12-18T13:29:06.175Z,8.86
2022-12-18T13:30:37.887Z,7.83
2022-12-18T13:31:59.703Z,7.74
2022-12-18T13:33:30.545Z,7.70
2022-12-18T13:35:24.261Z,6.95
2022-12-18T13:36:46.186Z,7.23
2022-12-18T13:38:21.862Z,7.92
2022-12-18T13:39:43.043Z,7.43
2022-12-18T13:41:06.783Z,7.44
2022-12-18T13:42:40.722Z,7.36
2022-12-18T13:44:28.526Z,6.79
2022-12-18T13:46:07.073Z,7.37
2022-12-18T13:47:34.006Z,7.77
2022-12-18T13:48:58.981Z,7.51
2022-12-18T13:50:23.649Z,7.39
2022-12-18T13:51:50.517Z,7.96
2022-12-18T13:53:24.052Z,8.76
2022-12-18T13:56:03.592Z,8.07
2022-12-18T13:58:40.077Z,8.56
2022-12-18T14:00:24.168Z,6.98
2022-12-18T14:01:48.211Z,8.34
2022-12-18T14:03:26.509Z,7.65
2022-12-18T14:04:48.625Z,7.12
2022-12-18T14:06:11.767Z,6.98
2022-12-18T14:07:34.645Z,7.30
2022-12-18T14:08:55.985Z,9.96
2022-12-18T14:11:40.720Z,7.66
2022-12-18T14:13:10.205Z,6.93
2022-12-18T14:14:33.779Z,7.14
2022-12-18T14:17:15.889Z,6.51
2022-12-18T14:20:02.437Z,7.01
2022-12-18T14:21:26.353Z,6.78
2022-12-18T14:22:48.542Z,8.07
2022-12-18T14:24:16.715Z,7.41
2022-12-18T14:25:39.189Z,7.74
2022-12-18T14:27:04.060Z,7.56
2022-12-18T14:28:26.056Z,7.17
2022-12-18T14:29:47.453Z,7.21
2022-12-18T14:32:31.686Z,7.15
2022-12-18T14:33:53.203Z,7.75
2022-12-18T14:35:15.443Z,7.33
2022-12-18T14:36:36.645Z,7.28
2022-12-18T14:38:19.674Z,7.01
2022-12-18T14:39:41.001Z,7.14
2022-12-18T14:41:08.314Z,7.39
2022-12-18T14:42:31.266Z,8.40
2022-12-18T14:45:41.663Z,8.88
2022-12-18T14:47:00.259Z,8.45
2022-12-18T14:48:24.385Z,8.74
2022-12-18T14:49:45.646Z,8.19
2022-12-18T14:51:13.603Z,8.10
2022-12-18T14:52:35.037Z,7.96
2022-12-18T14:53:58.117Z,8.16
2022-12-18T14:57:56.764Z,7.44
2022-12-18T14:59:24.566Z,7.74
2022-12-18T15:00:44.627Z,7.44
2022-12-18T15:02:12.804Z,6.89
2022-12-18T15:03:34.518Z,7.17
2022-12-18T15:05:08.459Z,7.33
2022-12-18T15:06:30.108Z,8.16
2022-12-18T15:07:52.409Z,8.26
2022-12-18T15:09:22.479Z,7.79
2022-12-18T15:10:47.274Z,6.45
2022-12-18T15:12:26.573Z,8.38
2022-12-18T15:13:47.902Z,7.48
2022-12-18T15:15:35.520Z,6.88
2022-12-18T15:16:57.584Z,9.11
2022-12-18T15:18:20.035Z,7.52
2022-12-18T15:19:43.173Z,7.34
2022-12-18T15:21:11.708Z,8.27
2022-12-18T15:23:53.205Z,7.40
2022-12-18T15:26:38.746Z,7.61
2022-12-18T15:28:00.480Z,7.60
2022-12-18T15:29:22.084Z,7.72
2022-12-18T15:31:04.174Z,7.94
2022-12-18T15:32:25.799Z,7.03
2022-12-18T15:33:56.791Z,7.83
2022-12-18T15:35:23.850Z,7.41
2022-12-18T15:36:45.343Z,8.04
2022-12-18T15:38:07.095Z,7.64
2022-12-18T15:39:28.798Z,8.43
2022-12-18T15:40:50.400Z,9.88
2022-12-18T15:42:11.511Z,9.71
2022-12-18T15:43:32.804Z,9.86
2022-12-18T15:44:55.846Z,8.65
2022-12-18T15:47:33.114Z,7.06
2022-12-18T15:49:01.169Z,6.37
2022-12-18T15:50:18.798Z,7.92
2022-12-18T15:51:41.058Z,8.26
2022-12-18T15:53:02.131Z,8.10
2022-12-18T15:54:24.135Z,6.55
2022-12-18T15:55:45.634Z,8.41
2022-12-18T15:57:09.708Z,7.59
2022-12-18T15:58:31.068Z,8.99
2022-12-18T15:59:55.869Z,8.63
2022-12-18T16:01:17.264Z,8.67
2022-12-18T16:02:38.986Z,7.87
2022-12-18T16:04:00.604Z,8.23
2022-12-18T16:05:23.001Z,8.34
2022-12-18T16:07:13.141Z,8.18
2022-12-18T16:08:07.481Z,8.95
2022-12-18T16:09:29.249Z,8.69
2022-12-18T16:10:50.899Z,8.71
2022-12-18T16:12:19.962Z,8.86
2022-12-18T16:13:41.416Z,9.53
2022-12-18T16:15:04.069Z,10.01
2022-12-18T16:16:25.754Z,7.21
2022-12-18T16:17:48.961Z,8.44
2022-12-18T16:19:10.532Z,8.93
2022-12-18T16:20:31.926Z,8.94
2022-12-18T16:21:55.306Z,8.62
2022-12-18T16:23:16.899Z,10.00
2022-12-18T16:24:38.225Z,10.28
2022-12-18T16:25:59.744Z,10.82
2022-12-18T16:27:21.444Z,10.41
2022-12-18T16:28:48.231Z,9.98
2022-12-18T16:31:28.888Z,8.25
2022-12-18T16:32:51.419Z,8.14
2022-12-18T16:34:16.577Z,8.55
2022-12-18T16:35:38.121Z,8.58
2022-12-18T16:37:05.192Z,9.33
2022-12-18T16:38:23.857Z,10.06
2022-12-18T16:39:46.836Z,8.38
2022-12-18T16:41:17.354Z,8.92
2022-12-18T16:42:39.982Z,8.46
2022-12-18T16:44:01.482Z,7.23
2022-12-18T16:45:22.967Z,8.88
2022-12-18T16:46:45.112Z,10.21
2022-12-18T16:48:06.864Z,8.68
2022-12-18T16:49:28.310Z,8.84
2022-12-18T16:50:49.615Z,8.90
2022-12-18T16:52:10.880Z,8.34
2022-12-18T16:53:32.689Z,7.66
2022-12-18T16:54:54.247Z,8.75
2022-12-18T16:56:15.498Z,8.10
2022-12-18T16:57:36.576Z,9.29
2022-12-18T16:58:59.389Z,11.34
2022-12-18T17:00:21.340Z,10.64
2022-12-18T17:01:42.649Z,9.32
2022-12-18T17:03:04.511Z,9.56
2022-12-18T17:04:26.294Z,8.72
2022-12-18T17:05:52.906Z,8.96
2022-12-18T17:08:31.662Z,7.52
2022-12-18T17:09:53.223Z,8.38
2022-12-18T17:11:14.614Z,8.31
2022-12-18T17:12:37.840Z,8.42
2022-12-18T17:13:59.146Z,9.07
2022-12-18T17:15:21.579Z,8.05
2022-12-18T17:16:44.058Z,9.78
2022-12-18T17:18:06.611Z,8.52
2022-12-18T17:19:28.114Z,8.17
2022-12-18T17:20:50.505Z,9.16
2022-12-18T17:22:12.038Z,8.44
2022-12-18T17:23:33.389Z,8.81
2022-12-18T17:24:54.710Z,8.27
2022-12-18T17:26:16.621Z,7.81
2022-12-18T17:27:39.809Z,8.55
2022-12-18T17:29:01.560Z,8.93
2022-12-18T17:30:23.023Z,8.41
2022-12-18T17:31:44.429Z,8.77
2022-12-18T17:33:05.969Z,8.67
2022-12-18T17:34:27.719Z,8.71
2022-12-18T17:35:49.520Z,8.97
2022-12-18T17:37:10.661Z,10.53
2022-12-18T17:38:31.882Z,10.03
2022-12-18T17:39:53.780Z,10.74
2022-12-18T17:41:15.454Z,11.51
2022-12-18T17:42:36.847Z,10.46
2022-12-18T17:45:10.885Z,8.73
2022-12-18T17:46:33.124Z,9.36
2022-12-18T17:47:59.742Z,8.88
2022-12-18T17:49:17.514Z,9.41
2022-12-18T17:50:40.358Z,9.90
2022-12-18T17:52:01.624Z,9.79
2022-12-18T17:53:24.188Z,10.52
2022-12-18T17:54:45.299Z,9.33
2022-12-18T17:56:07.577Z,10.96
2022-12-18T17:57:29.378Z,10.81
2022-12-18T17:58:50.493Z,10.37
2022-12-18T18:00:13.711Z,12.01
2022-12-18T18:02:58.153Z,10.27
2022-12-18T18:04:19.763Z,9.23
2022-12-18T18:05:41.188Z,9.72
2022-12-18T18:07:02.711Z,8.97
2022-12-18T18:08:24.897Z,9.19
2022-12-18T18:09:46.431Z,7.53
2022-12-18T18:11:10.714Z,9.52
2022-12-18T18:12:32.594Z,9.34
2022-12-18T18:13:54.175Z,8.94
2022-12-18T18:15:15.767Z,10.65
2022-12-18T18:16:42.073Z,11.83
2022-12-18T18:18:03.531Z,11.87
2022-12-18T18:19:24.932Z,12.61
2022-12-18T18:20:46.804Z,12.62
2022-12-18T18:22:07.958Z,12.58
2022-12-18T18:23:29.468Z,13.61
2022-12-18T18:24:51.017Z,13.07
2022-12-18T18:26:12.311Z,11.64
2022-12-18T18:27:38.359Z,12.71
2022-12-18T18:30:11.537Z,12.47
2022-12-18T18:31:33.770Z,12.03
2022-12-18T18:32:57.057Z,11.50
2022-12-18T18:34:23.410Z,12.78
2022-12-18T18:35:53.845Z,10.07
2022-12-18T18:38:32.142Z,9.46
2022-12-18T18:39:53.574Z,9.61
2022-12-18T18:41:14.984Z,10.14
2022-12-18T18:42:38.139Z,11.12
2022-12-18T18:45:20.541Z,9.74
2022-12-18T18:46:41.962Z,10.78
2022-12-18T18:48:03.600Z,10.39
2022-12-18T18:49:25.424Z,10.52
2022-12-18T18:52:10.844Z,10.98
2022-12-18T18:53:36.403Z,10.93
2022-12-18T18:55:12.792Z,8.98
2022-12-18T18:57:44.796Z,8.52
2022-12-18T18:59:06.601Z,8.16
2022-12-18T19:00:28.175Z,8.97
2022-12-18T19:01:49.853Z,8.00
2022-12-18T19:03:11.044Z,9.51
2022-12-18T19:04:32.975Z,8.49
2022-12-18T19:05:55.117Z,9.30
2022-12-18T19:07:29.342Z,9.03
2022-12-18T19:08:41.075Z,8.34
2022-12-18T19:10:04.808Z,8.51
2022-12-18T19:11:31.708Z,8.28
2022-12-18T19:12:51.575Z,8.79
2022-12-18T19:14:13.356Z,9.62
2022-12-18T19:16:52.679Z,10.03
2022-12-18T19:18:13.797Z,10.00
2022-12-18T19:19:35.299Z,9.34
2022-12-18T19:21:00.467Z,9.37
2022-12-18T19:22:22.936Z,8.24
2022-12-18T19:23:44.277Z,8.08
2022-12-18T19:25:06.744Z,8.52
2022-12-18T19:26:29.006Z,9.08
2022-12-18T19:27:50.272Z,8.14
2022-12-18T19:29:11.536Z,8.35
2022-12-18T19:30:37.364Z,8.84
2022-12-18T19:32:00.203Z,8.92
2022-12-18T19:33:41.911Z,7.95
2022-12-18T19:34:44.892Z,8.01
2022-12-18T19:36:17.057Z,7.54
2022-12-18T19:37:41.170Z,9.33
2022-12-18T19:40:22.116Z,9.18
2022-12-18T19:41:44.760Z,9.28
2022-12-18T19:43:06.353Z,8.82
2022-12-18T19:44:27.685Z,8.86
2022-12-18T19:45:54.338Z,9.33
2022-12-18T19:47:15.444Z,8.27
2022-12-18T19:48:36.546Z,8.06
2022-12-18T19:49:57.958Z,7.98
2022-12-18T19:52:33.814Z,6.72
2022-12-18T19:53:58.761Z,7.27
2022-12-18T19:55:19.020Z,7.36
2022-12-18T19:56:40.364Z,7.68
2022-12-18T19:58:02.421Z,6.42
2022-12-18T19:59:23.716Z,5.47
2022-12-18T20:00:45.417Z,7.03
2022-12-18T20:02:10.554Z,5.96
2022-12-18T20:03:32.823Z,6.87
2022-12-18T20:04:54.066Z,5.22
2022-12-18T20:06:27.929Z,6.68
2022-12-18T20:07:49.261Z,6.63
2022-12-18T20:09:10.566Z,6.48
2022-12-18T20:10:32.672Z,5.38
2022-12-18T20:11:54.232Z,4.38
2022-12-18T20:13:15.629Z,5.16
2022-12-18T20:14:36.803Z,5.47